X  Fermer Données météorologiques d'aviation de Metar        KHVN Tween New Haven Airport
Température
60°F Température
49°F Point de rosée
67% Humidité



Vent
7 MPH
11 KM/H
3 M/S
6 KTS



-1°
VRB
Conditions actuelles

Sunny Ensoleillé
Pression 1020 (hPa) - 30.13 (inHg)
Visibilité 10 (mile) - 16 (km)
Aéroport
Code de l'aéroport KHVN

Emplacement: Tween New Haven Airport
Distance: 7 (mi)

Metar:
METAR KHVN 031753Z VRB06KT 10SM CLR 16/09 A3013 RMK AO2 SLP204 T01560094 10167 20094 58007

Temps: 03-03-2024 12:53 EST